sensor_id;sensor_type;location;lat;lon;timestamp;pressure;altitude;pressure_sealevel;temperature;humidity
47710;BME280;33473;51.640;5.892;2022-12-18T00:04:06;102700;;;-0.2;50.0
47710;BME280;33473;51.640;5.892;2022-12-18T00:16:29;102700;;;-0.2;50.0
47710;BME280;33473;51.640;5.892;2022-12-18T00:28:51;102700;;;-0.3;50.0
47710;BME280;33473;51.640;5.892;2022-12-18T00:41:13;102700;;;-0.5;50.0
47710;BME280;33473;51.640;5.892;2022-12-18T00:53:35;102700;;;-0.7;50.0
47710;BME280;33473;51.640;5.892;2022-12-18T01:05:58;102700;;;-0.8;50.0
47710;BME280;33473;51.640;5.892;2022-12-18T01:18:20;102700;;;-0.8;50.0
47710;BME280;33473;51.640;5.892;2022-12-18T01:30:42;102700;;;-0.8;50.0
47710;BME280;33473;51.640;5.892;2022-12-18T01:43:04;102700;;;-0.9;50.0
47710;BME280;33473;51.640;5.892;2022-12-18T01:55:27;102700;;;-1.1;50.0
47710;BME280;33473;51.640;5.892;2022-12-18T02:07:49;102700;;;-1.1;50.0
47710;BME280;33473;51.640;5.892;2022-12-18T02:20:11;102700;;;-1.1;50.0
47710;BME280;33473;51.640;5.892;2022-12-18T02:32:33;102700;;;-1.1;50.0
47710;BME280;33473;51.640;5.892;2022-12-18T02:44:56;102700;;;-1.3;50.0
47710;BME280;33473;51.640;5.892;2022-12-18T02:57:18;102700;;;-1.3;50.0
47710;BME280;33473;51.640;5.892;2022-12-18T03:09:40;102700;;;-1.2;50.0
47710;BME280;33473;51.640;5.892;2022-12-18T03:22:02;102700;;;-1.1;50.0
47710;BME280;33473;51.640;5.892;2022-12-18T03:34:24;102700;;;-1.2;50.0
47710;BME280;33473;51.640;5.892;2022-12-18T03:46:47;102700;;;-1.4;50.0
47710;BME280;33473;51.640;5.892;2022-12-18T03:59:09;102600;;;-1.3;50.0
47710;BME280;33473;51.640;5.892;2022-12-18T04:11:31;102600;;;-1.3;50.0
47710;BME280;33473;51.640;5.892;2022-12-18T04:23:53;102600;;;-1.4;50.0
47710;BME280;33473;51.640;5.892;2022-12-18T04:36:16;102600;;;-1.4;50.0
47710;BME280;33473;51.640;5.892;2022-12-18T04:48:38;102600;;;-1.3;50.0
47710;BME280;33473;51.640;5.892;2022-12-18T05:01:00;102600;;;-1.4;50.0
47710;BME280;33473;51.640;5.892;2022-12-18T05:13:22;102600;;;-1.4;50.0
47710;BME280;33473;51.640;5.892;2022-12-18T05:25:44;102700;;;-1.5;50.0
47710;BME280;33473;51.640;5.892;2022-12-18T05:38:07;102700;;;-1.4;50.0
47710;BME280;33473;51.640;5.892;2022-12-18T05:50:29;102700;;;-1.4;50.0
47710;BME280;33473;51.640;5.892;2022-12-18T06:02:51;102600;;;-1.0;50.0
47710;BME280;33473;51.640;5.892;2022-12-18T06:15:13;102600;;;-0.5;51.0
47710;BME280;33473;51.640;5.892;2022-12-18T06:27:36;102600;;;-0.3;51.0
47710;BME280;33473;51.640;5.892;2022-12-18T06:39:58;102600;;;-0.1;51.0
47710;BME280;33473;51.640;5.892;2022-12-18T07:17:05;102600;;;0.2;51.0
47710;BME280;33473;51.640;5.892;2022-12-18T07:29:27;102600;;;0.3;51.0
47710;BME280;33473;51.640;5.892;2022-12-18T07:41:49;102600;;;0.5;51.0
47710;BME280;33473;51.640;5.892;2022-12-18T07:54:11;102500;;;0.6;51.0
47710;BME280;33473;51.640;5.892;2022-12-18T08:06:33;102500;;;0.8;51.0
47710;BME280;33473;51.640;5.892;2022-12-18T08:18:56;102500;;;1.1;51.0
47710;BME280;33473;51.640;5.892;2022-12-18T08:31:18;102500;;;1.3;51.0
47710;BME280;33473;51.640;5.892;2022-12-18T08:43:40;102500;;;1.7;51.0
47710;BME280;33473;51.640;5.892;2022-12-18T08:56:30;102500;;;2.0;51.0
47710;BME280;33473;51.640;5.892;2022-12-18T09:09:49;102500;;;2.3;50.0
47710;BME280;33473;51.640;5.892;2022-12-18T09:23:09;102500;;;2.7;49.0
47710;BME280;33473;51.640;5.892;2022-12-18T09:36:29;102500;;;3.0;49.0
47710;BME280;33473;51.640;5.892;2022-12-18T09:49:48;102500;;;3.2;48.0
47710;BME280;33473;51.640;5.892;2022-12-18T10:03:08;102500;;;3.4;47.0
47710;BME280;33473;51.640;5.892;2022-12-18T10:16:28;102400;;;3.5;48.0
47710;BME280;33473;51.640;5.892;2022-12-18T10:29:47;102400;;;3.7;47.0
47710;BME280;33473;51.640;5.892;2022-12-18T10:43:07;102400;;;4.0;46.0
47710;BME280;33473;51.640;5.892;2022-12-18T10:56:27;102400;;;4.1;46.0
47710;BME280;33473;51.640;5.892;2022-12-18T11:09:46;102400;;;4.2;46.0
47710;BME280;33473;51.640;5.892;2022-12-18T11:23:06;102400;;;4.3;46.0
47710;BME280;33473;51.640;5.892;2022-12-18T11:36:26;102300;;;4.6;45.0
47710;BME280;33473;51.640;5.892;2022-12-18T11:49:46;102400;;;4.7;45.0
47710;BME280;33473;51.640;5.892;2022-12-18T12:03:05;102300;;;4.9;45.0
47710;BME280;33473;51.640;5.892;2022-12-18T12:16:25;102300;;;5.0;44.0
47710;BME280;33473;51.640;5.892;2022-12-18T12:29:45;102300;;;5.1;44.0
47710;BME280;33473;51.640;5.892;2022-12-18T12:43:04;102300;;;5.1;44.0
47710;BME280;33473;51.640;5.892;2022-12-18T12:56:24;102300;;;5.1;44.0
47710;BME280;33473;51.640;5.892;2022-12-18T13:09:44;102200;;;5.2;44.0
47710;BME280;33473;51.640;5.892;2022-12-18T13:23:03;102200;;;5.1;44.0
47710;BME280;33473;51.640;5.892;2022-12-18T13:36:23;102200;;;5.2;44.0
47710;BME280;33473;51.640;5.892;2022-12-18T13:49:43;102200;;;5.2;44.0
47710;BME280;33473;51.640;5.892;2022-12-18T14:03:02;102200;;;5.3;43.0
47710;BME280;33473;51.640;5.892;2022-12-18T14:16:22;102200;;;5.4;43.0
47710;BME280;33473;51.640;5.892;2022-12-18T14:29:42;102200;;;5.1;43.0
47710;BME280;33473;51.640;5.892;2022-12-18T14:43:01;102200;;;5.2;44.0
47710;BME280;33473;51.640;5.892;2022-12-18T14:56:21;102200;;;5.1;43.0
47710;BME280;33473;51.640;5.892;2022-12-18T15:09:41;102200;;;5.2;43.0
47710;BME280;33473;51.640;5.892;2022-12-18T15:23:00;102100;;;5.1;43.0
47710;BME280;33473;51.640;5.892;2022-12-18T15:36:20;102100;;;4.9;43.0
47710;BME280;33473;51.640;5.892;2022-12-18T15:49:40;102100;;;5.2;43.0
47710;BME280;33473;51.640;5.892;2022-12-18T16:03:00;102100;;;5.4;43.0
47710;BME280;33473;51.640;5.892;2022-12-18T16:16:19;102100;;;5.2;43.0
47710;BME280;33473;51.640;5.892;2022-12-18T16:29:39;102100;;;5.0;43.0
47710;BME280;33473;51.640;5.892;2022-12-18T16:42:59;102100;;;5.0;43.0
47710;BME280;33473;51.640;5.892;2022-12-18T16:56:18;102100;;;5.1;44.0
47710;BME280;33473;51.640;5.892;2022-12-18T17:09:38;102100;;;5.2;44.0
47710;BME280;33473;51.640;5.892;2022-12-18T17:22:58;102100;;;5.0;44.0
47710;BME280;33473;51.640;5.892;2022-12-18T17:36:17;102100;;;5.0;45.0
47710;BME280;33473;51.640;5.892;2022-12-18T17:49:37;102100;;;5.2;44.0
47710;BME280;33473;51.640;5.892;2022-12-18T18:02:57;102100;;;5.2;44.0
47710;BME280;33473;51.640;5.892;2022-12-18T18:16:16;102100;;;5.4;44.0
47710;BME280;33473;51.640;5.892;2022-12-18T18:29:36;102100;;;5.4;44.0
47710;BME280;33473;51.640;5.892;2022-12-18T18:42:56;102100;;;5.3;45.0
47710;BME280;33473;51.640;5.892;2022-12-18T18:56:15;102100;;;5.2;45.0
47710;BME280;33473;51.640;5.892;2022-12-18T19:09:35;102000;;;5.3;45.0
47710;BME280;33473;51.640;5.892;2022-12-18T19:22:55;102000;;;5.4;45.0
47710;BME280;33473;51.640;5.892;2022-12-18T19:36:14;102000;;;5.5;45.0
47710;BME280;33473;51.640;5.892;2022-12-18T19:49:34;102100;;;5.6;45.0
47710;BME280;33473;51.640;5.892;2022-12-18T20:02:54;102000;;;5.7;46.0
47710;BME280;33473;51.640;5.892;2022-12-18T20:16:13;102000;;;5.5;47.0
47710;BME280;33473;51.640;5.892;2022-12-18T20:29:33;102100;;;5.6;48.0
47710;BME280;33473;51.640;5.892;2022-12-18T20:42:53;102100;;;5.9;49.0
47710;BME280;33473;51.640;5.892;2022-12-18T20:56:12;102100;;;6.1;49.0
47710;BME280;33473;51.640;5.892;2022-12-18T21:09:32;102000;;;5.9;50.0
47710;BME280;33473;51.640;5.892;2022-12-18T21:22:52;102000;;;5.4;52.0
47710;BME280;33473;51.640;5.892;2022-12-18T21:36:11;102000;;;5.3;53.0
47710;BME280;33473;51.640;5.892;2022-12-18T21:49:31;102000;;;5.3;53.0
47710;BME280;33473;51.640;5.892;2022-12-18T22:02:51;102000;;;5.0;54.0
47710;BME280;33473;51.640;5.892;2022-12-18T22:16:10;102000;;;5.5;54.0
47710;BME280;33473;51.640;5.892;2022-12-18T22:29:30;101900;;;5.5;54.0
47710;BME280;33473;51.640;5.892;2022-12-18T22:42:50;101900;;;5.1;55.0
47710;BME280;33473;51.640;5.892;2022-12-18T22:56:09;101900;;;5.2;55.0
47710;BME280;33473;51.640;5.892;2022-12-18T23:09:29;101900;;;5.2;56.0
47710;BME280;33473;51.640;5.892;2022-12-18T23:22:49;101800;;;5.3;56.0
47710;BME280;33473;51.640;5.892;2022-12-18T23:36:08;101800;;;5.4;56.0
47710;BME280;33473;51.640;5.892;2022-12-18T23:49:28;101800;;;5.6;56.0
